sensor_id;sensor_type;location;lat;lon;timestamp;P1;durP1;ratioP1;P2;durP2;ratioP2
59127;SDS011;44912;52.754;5.994;2023-04-01T00:00:53;8.73;;;4.45;;
59127;SDS011;44912;52.754;5.994;2023-04-01T00:03:21;7.22;;;4.20;;
59127;SDS011;44912;52.754;5.994;2023-04-01T00:05:47;8.70;;;4.85;;
59127;SDS011;44912;52.754;5.994;2023-04-01T00:08:12;8.35;;;4.65;;
59127;SDS011;44912;52.754;5.994;2023-04-01T00:10:39;8.57;;;4.95;;
59127;SDS011;44912;52.754;5.994;2023-04-01T00:13:04;7.35;;;4.65;;
59127;SDS011;44912;52.754;5.994;2023-04-01T00:15:30;8.68;;;4.55;;
59127;SDS011;44912;52.754;5.994;2023-04-01T00:17:56;8.43;;;4.90;;
59127;SDS011;44912;52.754;5.994;2023-04-01T00:20:21;7.43;;;4.20;;
59127;SDS011;44912;52.754;5.994;2023-04-01T00:22:47;8.00;;;4.72;;
59127;SDS011;44912;52.754;5.994;2023-04-01T00:25:13;6.80;;;4.10;;
59127;SDS011;44912;52.754;5.994;2023-04-01T00:27:39;9.02;;;4.60;;
59127;SDS011;44912;52.754;5.994;2023-04-01T00:30:05;7.18;;;4.50;;
59127;SDS011;44912;52.754;5.994;2023-04-01T00:32:31;8.07;;;4.68;;
59127;SDS011;44912;52.754;5.994;2023-04-01T00:34:57;8.02;;;4.40;;
59127;SDS011;44912;52.754;5.994;2023-04-01T00:37:24;6.85;;;4.30;;
59127;SDS011;44912;52.754;5.994;2023-04-01T00:39:50;8.13;;;4.65;;
59127;SDS011;44912;52.754;5.994;2023-04-01T00:42:16;10.35;;;4.28;;
59127;SDS011;44912;52.754;5.994;2023-04-01T00:44:41;7.63;;;4.32;;
59127;SDS011;44912;52.754;5.994;2023-04-01T00:47:07;7.63;;;4.43;;
59127;SDS011;44912;52.754;5.994;2023-04-01T00:49:35;7.30;;;4.45;;
59127;SDS011;44912;52.754;5.994;2023-04-01T00:52:04;9.07;;;5.25;;
59127;SDS011;44912;52.754;5.994;2023-04-01T00:54:32;8.57;;;4.90;;
59127;SDS011;44912;52.754;5.994;2023-04-01T00:57:12;9.75;;;4.85;;
59127;SDS011;44912;52.754;5.994;2023-04-01T00:59:54;8.18;;;5.03;;
59127;SDS011;44912;52.754;5.994;2023-04-01T01:02:22;7.68;;;4.50;;
59127;SDS011;44912;52.754;5.994;2023-04-01T01:04:48;8.52;;;5.15;;
59127;SDS011;44912;52.754;5.994;2023-04-01T01:12:46;9.07;;;5.95;;
59127;SDS011;44912;52.754;5.994;2023-04-01T01:15:30;8.95;;;5.20;;
59127;SDS011;44912;52.754;5.994;2023-04-01T01:18:09;8.85;;;5.03;;
59127;SDS011;44912;52.754;5.994;2023-04-01T01:23:37;8.70;;;5.50;;
59127;SDS011;44912;52.754;5.994;2023-04-01T01:31:54;8.73;;;5.53;;
59127;SDS011;44912;52.754;5.994;2023-04-01T01:34:43;9.27;;;5.65;;
59127;SDS011;44912;52.754;5.994;2023-04-01T01:37:17;8.65;;;5.50;;
59127;SDS011;44912;52.754;5.994;2023-04-01T01:39:46;10.13;;;6.00;;
59127;SDS011;44912;52.754;5.994;2023-04-01T01:42:15;10.85;;;6.55;;
59127;SDS011;44912;52.754;5.994;2023-04-01T01:44:44;10.63;;;6.60;;
59127;SDS011;44912;52.754;5.994;2023-04-01T01:47:12;12.15;;;7.40;;
59127;SDS011;44912;52.754;5.994;2023-04-01T01:49:39;9.60;;;6.68;;
59127;SDS011;44912;52.754;5.994;2023-04-01T01:52:07;10.35;;;6.68;;
59127;SDS011;44912;52.754;5.994;2023-04-01T01:54:32;10.98;;;7.50;;
59127;SDS011;44912;52.754;5.994;2023-04-01T01:57:03;11.65;;;7.75;;
59127;SDS011;44912;52.754;5.994;2023-04-01T01:59:32;11.93;;;7.33;;
59127;SDS011;44912;52.754;5.994;2023-04-01T02:02:00;10.65;;;7.40;;
59127;SDS011;44912;52.754;5.994;2023-04-01T02:04:32;14.30;;;8.00;;
59127;SDS011;44912;52.754;5.994;2023-04-01T02:07:08;11.32;;;8.10;;
59127;SDS011;44912;52.754;5.994;2023-04-01T02:09:41;14.60;;;8.82;;
59127;SDS011;44912;52.754;5.994;2023-04-01T02:12:08;12.38;;;8.02;;
59127;SDS011;44912;52.754;5.994;2023-04-01T02:14:57;12.85;;;8.52;;
59127;SDS011;44912;52.754;5.994;2023-04-01T02:17:31;12.95;;;8.02;;
59127;SDS011;44912;52.754;5.994;2023-04-01T02:22:26;14.55;;;8.77;;
59127;SDS011;44912;52.754;5.994;2023-04-01T02:24:59;13.52;;;8.57;;
59127;SDS011;44912;52.754;5.994;2023-04-01T02:27:29;12.57;;;8.45;;
59127;SDS011;44912;52.754;5.994;2023-04-01T02:29:56;14.02;;;8.55;;
59127;SDS011;44912;52.754;5.994;2023-04-01T02:32:23;13.18;;;8.30;;
59127;SDS011;44912;52.754;5.994;2023-04-01T02:34:50;12.65;;;8.50;;
59127;SDS011;44912;52.754;5.994;2023-04-01T02:37:16;14.77;;;8.57;;
59127;SDS011;44912;52.754;5.994;2023-04-01T02:39:42;13.38;;;8.57;;
59127;SDS011;44912;52.754;5.994;2023-04-01T02:42:08;15.88;;;9.15;;
59127;SDS011;44912;52.754;5.994;2023-04-01T02:44:35;12.60;;;8.45;;
59127;SDS011;44912;52.754;5.994;2023-04-01T02:47:01;14.88;;;8.60;;
59127;SDS011;44912;52.754;5.994;2023-04-01T02:49:26;12.85;;;8.90;;
59127;SDS011;44912;52.754;5.994;2023-04-01T02:51:52;15.85;;;9.45;;
59127;SDS011;44912;52.754;5.994;2023-04-01T02:54:18;15.80;;;10.43;;
59127;SDS011;44912;52.754;5.994;2023-04-01T02:56:44;15.05;;;8.75;;
59127;SDS011;44912;52.754;5.994;2023-04-01T02:59:10;14.90;;;9.00;;
59127;SDS011;44912;52.754;5.994;2023-04-01T03:01:36;14.60;;;8.18;;
59127;SDS011;44912;52.754;5.994;2023-04-01T03:04:02;14.95;;;8.82;;
59127;SDS011;44912;52.754;5.994;2023-04-01T03:06:27;15.43;;;9.18;;
59127;SDS011;44912;52.754;5.994;2023-04-01T03:08:53;13.30;;;8.05;;
59127;SDS011;44912;52.754;5.994;2023-04-01T03:11:18;13.95;;;8.52;;
59127;SDS011;44912;52.754;5.994;2023-04-01T03:13:44;16.75;;;9.13;;
59127;SDS011;44912;52.754;5.994;2023-04-01T03:16:10;15.68;;;8.40;;
59127;SDS011;44912;52.754;5.994;2023-04-01T03:18:36;14.55;;;8.05;;
59127;SDS011;44912;52.754;5.994;2023-04-01T03:21:18;12.65;;;7.53;;
59127;SDS011;44912;52.754;5.994;2023-04-01T03:23:45;13.95;;;8.10;;
59127;SDS011;44912;52.754;5.994;2023-04-01T03:26:11;13.05;;;7.72;;
59127;SDS011;44912;52.754;5.994;2023-04-01T03:28:36;14.38;;;8.23;;
59127;SDS011;44912;52.754;5.994;2023-04-01T03:31:02;16.38;;;8.00;;
59127;SDS011;44912;52.754;5.994;2023-04-01T03:33:28;14.02;;;8.15;;
59127;SDS011;44912;52.754;5.994;2023-04-01T03:35:53;13.45;;;8.35;;
59127;SDS011;44912;52.754;5.994;2023-04-01T03:38:19;16.15;;;8.15;;
59127;SDS011;44912;52.754;5.994;2023-04-01T03:40:45;14.05;;;8.75;;
59127;SDS011;44912;52.754;5.994;2023-04-01T03:43:10;14.60;;;8.23;;
59127;SDS011;44912;52.754;5.994;2023-04-01T03:45:43;16.35;;;8.20;;
59127;SDS011;44912;52.754;5.994;2023-04-01T03:48:12;15.68;;;8.55;;
59127;SDS011;44912;52.754;5.994;2023-04-01T03:50:38;13.20;;;8.50;;
59127;SDS011;44912;52.754;5.994;2023-04-01T03:53:04;15.00;;;7.28;;
59127;SDS011;44912;52.754;5.994;2023-04-01T03:55:29;11.63;;;7.22;;
59127;SDS011;44912;52.754;5.994;2023-04-01T03:57:55;12.52;;;6.93;;
59127;SDS011;44912;52.754;5.994;2023-04-01T04:00:20;15.70;;;7.38;;
59127;SDS011;44912;52.754;5.994;2023-04-01T04:02:46;12.05;;;6.32;;
59127;SDS011;44912;52.754;5.994;2023-04-01T04:05:12;9.60;;;5.90;;
59127;SDS011;44912;52.754;5.994;2023-04-01T04:07:38;10.02;;;5.90;;
59127;SDS011;44912;52.754;5.994;2023-04-01T04:10:04;13.15;;;5.78;;
59127;SDS011;44912;52.754;5.994;2023-04-01T04:12:30;9.63;;;5.60;;
59127;SDS011;44912;52.754;5.994;2023-04-01T04:14:56;8.93;;;4.50;;
59127;SDS011;44912;52.754;5.994;2023-04-01T04:17:21;9.05;;;4.50;;
59127;SDS011;44912;52.754;5.994;2023-04-01T04:19:47;8.50;;;3.72;;
59127;SDS011;44912;52.754;5.994;2023-04-01T04:22:12;6.63;;;3.40;;
59127;SDS011;44912;52.754;5.994;2023-04-01T04:24:38;7.18;;;3.50;;
59127;SDS011;44912;52.754;5.994;2023-04-01T04:27:03;8.18;;;3.63;;
59127;SDS011;44912;52.754;5.994;2023-04-01T04:29:29;7.90;;;4.20;;
59127;SDS011;44912;52.754;5.994;2023-04-01T04:31:55;8.20;;;4.25;;
59127;SDS011;44912;52.754;5.994;2023-04-01T04:34:20;8.05;;;4.03;;
59127;SDS011;44912;52.754;5.994;2023-04-01T04:36:47;8.30;;;3.90;;
59127;SDS011;44912;52.754;5.994;2023-04-01T04:39:13;8.70;;;4.53;;
59127;SDS011;44912;52.754;5.994;2023-04-01T04:41:40;12.88;;;5.75;;
59127;SDS011;44912;52.754;5.994;2023-04-01T04:44:06;10.30;;;5.68;;
59127;SDS011;44912;52.754;5.994;2023-04-01T04:46:31;12.50;;;6.22;;
59127;SDS011;44912;52.754;5.994;2023-04-01T04:48:57;11.18;;;6.60;;
59127;SDS011;44912;52.754;5.994;2023-04-01T04:51:23;12.95;;;7.22;;
59127;SDS011;44912;52.754;5.994;2023-04-01T04:53:48;12.20;;;7.85;;
59127;SDS011;44912;52.754;5.994;2023-04-01T04:56:18;12.13;;;7.43;;
59127;SDS011;44912;52.754;5.994;2023-04-01T04:58:45;15.02;;;7.57;;
59127;SDS011;44912;52.754;5.994;2023-04-01T05:01:14;13.15;;;7.18;;
59127;SDS011;44912;52.754;5.994;2023-04-01T05:03:41;12.48;;;7.38;;
59127;SDS011;44912;52.754;5.994;2023-04-01T05:06:07;11.55;;;7.15;;
59127;SDS011;44912;52.754;5.994;2023-04-01T05:08:34;16.85;;;7.80;;
59127;SDS011;44912;52.754;5.994;2023-04-01T05:11:00;14.25;;;8.38;;
59127;SDS011;44912;52.754;5.994;2023-04-01T05:13:27;17.83;;;8.13;;
59127;SDS011;44912;52.754;5.994;2023-04-01T05:15:52;15.07;;;7.60;;
59127;SDS011;44912;52.754;5.994;2023-04-01T05:18:18;18.90;;;8.60;;
59127;SDS011;44912;52.754;5.994;2023-04-01T05:20:51;17.05;;;8.18;;
59127;SDS011;44912;52.754;5.994;2023-04-01T05:23:17;19.20;;;8.40;;
59127;SDS011;44912;52.754;5.994;2023-04-01T05:25:45;14.98;;;7.97;;
59127;SDS011;44912;52.754;5.994;2023-04-01T05:28:11;19.58;;;8.20;;
59127;SDS011;44912;52.754;5.994;2023-04-01T05:30:39;15.95;;;7.90;;
59127;SDS011;44912;52.754;5.994;2023-04-01T05:33:06;13.57;;;7.10;;
59127;SDS011;44912;52.754;5.994;2023-04-01T05:35:32;16.33;;;7.53;;
59127;SDS011;44912;52.754;5.994;2023-04-01T05:37:57;20.33;;;7.57;;
59127;SDS011;44912;52.754;5.994;2023-04-01T05:40:23;15.35;;;7.47;;
59127;SDS011;44912;52.754;5.994;2023-04-01T05:42:48;12.70;;;7.40;;
59127;SDS011;44912;52.754;5.994;2023-04-01T05:45:14;12.30;;;6.68;;
59127;SDS011;44912;52.754;5.994;2023-04-01T05:47:40;13.20;;;6.88;;
59127;SDS011;44912;52.754;5.994;2023-04-01T05:50:07;13.60;;;6.38;;
59127;SDS011;44912;52.754;5.994;2023-04-01T05:52:35;10.38;;;5.30;;
59127;SDS011;44912;52.754;5.994;2023-04-01T05:55:01;11.70;;;5.63;;
59127;SDS011;44912;52.754;5.994;2023-04-01T05:57:26;10.48;;;5.63;;
59127;SDS011;44912;52.754;5.994;2023-04-01T05:59:52;16.20;;;5.45;;
59127;SDS011;44912;52.754;5.994;2023-04-01T06:02:17;11.82;;;5.38;;
59127;SDS011;44912;52.754;5.994;2023-04-01T06:04:43;11.13;;;5.45;;
59127;SDS011;44912;52.754;5.994;2023-04-01T06:07:18;13.43;;;5.00;;
59127;SDS011;44912;52.754;5.994;2023-04-01T06:15:16;10.70;;;5.25;;
59127;SDS011;44912;52.754;5.994;2023-04-01T06:26:20;9.90;;;4.70;;
59127;SDS011;44912;52.754;5.994;2023-04-01T06:31:56;8.13;;;3.83;;
59127;SDS011;44912;52.754;5.994;2023-04-01T06:34:41;9.25;;;4.35;;
59127;SDS011;44912;52.754;5.994;2023-04-01T06:40:34;7.53;;;3.75;;
59127;SDS011;44912;52.754;5.994;2023-04-01T06:54:31;8.48;;;3.92;;
59127;SDS011;44912;52.754;5.994;2023-04-01T06:59:51;8.15;;;4.18;;
59127;SDS011;44912;52.754;5.994;2023-04-01T07:02:23;10.77;;;4.53;;
59127;SDS011;44912;52.754;5.994;2023-04-01T07:04:54;9.02;;;4.38;;
59127;SDS011;44912;52.754;5.994;2023-04-01T07:10:04;8.80;;;4.45;;
59127;SDS011;44912;52.754;5.994;2023-04-01T07:12:49;9.73;;;4.20;;
59127;SDS011;44912;52.754;5.994;2023-04-01T07:15:23;8.27;;;4.63;;
59127;SDS011;44912;52.754;5.994;2023-04-01T07:17:55;9.00;;;4.75;;
59127;SDS011;44912;52.754;5.994;2023-04-01T07:20:25;7.43;;;3.95;;
59127;SDS011;44912;52.754;5.994;2023-04-01T07:22:57;8.43;;;4.55;;
59127;SDS011;44912;52.754;5.994;2023-04-01T07:25:26;8.90;;;4.30;;
59127;SDS011;44912;52.754;5.994;2023-04-01T07:28:12;9.55;;;4.53;;
59127;SDS011;44912;52.754;5.994;2023-04-01T07:30:57;7.78;;;4.13;;
59127;SDS011;44912;52.754;5.994;2023-04-01T07:39:22;9.25;;;5.20;;
59127;SDS011;44912;52.754;5.994;2023-04-01T07:53:07;8.77;;;4.70;;
59127;SDS011;44912;52.754;5.994;2023-04-01T08:06:39;8.23;;;4.90;;
59127;SDS011;44912;52.754;5.994;2023-04-01T08:11:39;9.10;;;5.00;;
59127;SDS011;44912;52.754;5.994;2023-04-01T08:17:11;7.13;;;4.00;;
59127;SDS011;44912;52.754;5.994;2023-04-01T08:22:32;7.22;;;3.83;;
59127;SDS011;44912;52.754;5.994;2023-04-01T08:25:05;7.78;;;4.00;;
59127;SDS011;44912;52.754;5.994;2023-04-01T08:27:39;6.85;;;3.65;;
59127;SDS011;44912;52.754;5.994;2023-04-01T08:30:32;7.03;;;3.97;;
59127;SDS011;44912;52.754;5.994;2023-04-01T08:33:10;6.60;;;3.40;;
59127;SDS011;44912;52.754;5.994;2023-04-01T08:38:32;5.80;;;3.30;;
59127;SDS011;44912;52.754;5.994;2023-04-01T08:41:15;4.88;;;2.83;;
59127;SDS011;44912;52.754;5.994;2023-04-01T08:44:19;6.13;;;3.20;;
59127;SDS011;44912;52.754;5.994;2023-04-01T08:50:04;6.50;;;3.38;;
59127;SDS011;44912;52.754;5.994;2023-04-01T08:55:47;6.63;;;4.03;;
59127;SDS011;44912;52.754;5.994;2023-04-01T08:58:32;7.70;;;4.38;;
59127;SDS011;44912;52.754;5.994;2023-04-01T09:12:42;10.48;;;6.90;;
59127;SDS011;44912;52.754;5.994;2023-04-01T09:16:08;11.07;;;7.40;;
59127;SDS011;44912;52.754;5.994;2023-04-01T09:42:07;14.15;;;9.55;;
59127;SDS011;44912;52.754;5.994;2023-04-01T09:44:50;14.32;;;9.75;;
59127;SDS011;44912;52.754;5.994;2023-04-01T09:47:43;14.40;;;9.23;;
59127;SDS011;44912;52.754;5.994;2023-04-01T09:53:34;14.20;;;10.02;;
59127;SDS011;44912;52.754;5.994;2023-04-01T10:04:56;16.20;;;10.93;;
59127;SDS011;44912;52.754;5.994;2023-04-01T10:13:03;14.75;;;10.57;;
59127;SDS011;44912;52.754;5.994;2023-04-01T10:15:37;16.23;;;10.50;;
59127;SDS011;44912;52.754;5.994;2023-04-01T10:32:11;13.00;;;8.77;;
59127;SDS011;44912;52.754;5.994;2023-04-01T10:43:18;14.98;;;10.60;;
59127;SDS011;44912;52.754;5.994;2023-04-01T10:58:03;14.50;;;10.48;;
59127;SDS011;44912;52.754;5.994;2023-04-01T11:01:14;13.77;;;9.93;;
59127;SDS011;44912;52.754;5.994;2023-04-01T11:32:12;8.80;;;5.70;;
59127;SDS011;44912;52.754;5.994;2023-04-01T11:34:52;7.90;;;5.22;;
59127;SDS011;44912;52.754;5.994;2023-04-01T11:40:59;8.50;;;4.38;;
59127;SDS011;44912;52.754;5.994;2023-04-01T11:43:37;8.25;;;4.68;;
59127;SDS011;44912;52.754;5.994;2023-04-01T11:46:11;8.50;;;4.57;;
59127;SDS011;44912;52.754;5.994;2023-04-01T11:48:45;9.85;;;5.38;;
59127;SDS011;44912;52.754;5.994;2023-04-01T11:54:04;8.95;;;5.22;;
59127;SDS011;44912;52.754;5.994;2023-04-01T11:56:49;8.43;;;5.47;;
59127;SDS011;44912;52.754;5.994;2023-04-01T12:16:11;8.13;;;5.80;;
59127;SDS011;44912;52.754;5.994;2023-04-01T12:19:16;7.93;;;5.30;;
59127;SDS011;44912;52.754;5.994;2023-04-01T12:22:08;7.15;;;5.00;;
59127;SDS011;44912;52.754;5.994;2023-04-01T12:27:39;7.35;;;4.85;;
59127;SDS011;44912;52.754;5.994;2023-04-01T12:33:27;7.47;;;5.10;;
59127;SDS011;44912;52.754;5.994;2023-04-01T12:36:18;9.25;;;5.15;;
59127;SDS011;44912;52.754;5.994;2023-04-01T12:42:07;7.32;;;4.53;;
59127;SDS011;44912;52.754;5.994;2023-04-01T12:47:35;6.93;;;4.00;;
59127;SDS011;44912;52.754;5.994;2023-04-01T12:50:28;6.10;;;3.78;;
59127;SDS011;44912;52.754;5.994;2023-04-01T12:55:59;6.30;;;3.65;;
59127;SDS011;44912;52.754;5.994;2023-04-01T13:01:53;6.20;;;3.92;;
59127;SDS011;44912;52.754;5.994;2023-04-01T13:07:17;5.65;;;3.60;;
59127;SDS011;44912;52.754;5.994;2023-04-01T13:12:36;5.68;;;3.67;;
59127;SDS011;44912;52.754;5.994;2023-04-01T13:18:07;6.28;;;3.70;;
59127;SDS011;44912;52.754;5.994;2023-04-01T13:26:07;6.20;;;4.15;;
59127;SDS011;44912;52.754;5.994;2023-04-01T13:29:04;5.90;;;3.80;;
59127;SDS011;44912;52.754;5.994;2023-04-01T13:31:52;6.30;;;4.03;;
59127;SDS011;44912;52.754;5.994;2023-04-01T13:37:43;6.20;;;4.28;;
59127;SDS011;44912;52.754;5.994;2023-04-01T13:43:20;6.70;;;4.07;;
59127;SDS011;44912;52.754;5.994;2023-04-01T13:51:13;4.85;;;2.90;;
59127;SDS011;44912;52.754;5.994;2023-04-01T13:53:50;5.30;;;3.22;;
59127;SDS011;44912;52.754;5.994;2023-04-01T13:56:40;5.35;;;3.03;;
59127;SDS011;44912;52.754;5.994;2023-04-01T14:02:57;5.82;;;3.15;;
59127;SDS011;44912;52.754;5.994;2023-04-01T14:16:55;4.88;;;2.70;;
59127;SDS011;44912;52.754;5.994;2023-04-01T14:34:08;4.45;;;2.80;;
59127;SDS011;44912;52.754;5.994;2023-04-01T14:42:41;4.82;;;2.80;;
59127;SDS011;44912;52.754;5.994;2023-04-01T14:48:00;4.57;;;2.63;;
59127;SDS011;44912;52.754;5.994;2023-04-01T14:50:46;3.60;;;2.50;;
59127;SDS011;44912;52.754;5.994;2023-04-01T14:58:17;5.07;;;2.53;;
59127;SDS011;44912;52.754;5.994;2023-04-01T15:00:48;4.28;;;2.58;;
59127;SDS011;44912;52.754;5.994;2023-04-01T15:23:09;2.03;;;1.42;;
59127;SDS011;44912;52.754;5.994;2023-04-01T15:28:48;3.80;;;1.73;;
59127;SDS011;44912;52.754;5.994;2023-04-01T15:34:07;2.97;;;2.10;;
59127;SDS011;44912;52.754;5.994;2023-04-01T15:36:44;2.50;;;1.85;;
59127;SDS011;44912;52.754;5.994;2023-04-01T15:39:51;2.80;;;1.85;;
59127;SDS011;44912;52.754;5.994;2023-04-01T15:47:37;3.92;;;2.58;;
59127;SDS011;44912;52.754;5.994;2023-04-01T15:50:34;3.35;;;2.30;;
59127;SDS011;44912;52.754;5.994;2023-04-01T16:00:06;3.70;;;2.25;;
59127;SDS011;44912;52.754;5.994;2023-04-01T16:02:30;3.60;;;2.47;;
59127;SDS011;44912;52.754;5.994;2023-04-01T16:16:38;5.13;;;2.78;;
59127;SDS011;44912;52.754;5.994;2023-04-01T16:22:13;4.78;;;3.33;;
59127;SDS011;44912;52.754;5.994;2023-04-01T16:24:53;5.43;;;3.10;;
59127;SDS011;44912;52.754;5.994;2023-04-01T16:27:37;4.05;;;2.83;;
59127;SDS011;44912;52.754;5.994;2023-04-01T16:30:38;4.43;;;2.90;;
59127;SDS011;44912;52.754;5.994;2023-04-01T16:39:15;4.93;;;3.08;;
59127;SDS011;44912;52.754;5.994;2023-04-01T16:42:26;5.28;;;3.47;;
59127;SDS011;44912;52.754;5.994;2023-04-01T16:55:17;4.97;;;3.00;;
59127;SDS011;44912;52.754;5.994;2023-04-01T17:00:36;7.35;;;4.03;;
59127;SDS011;44912;52.754;5.994;2023-04-01T17:11:28;8.43;;;4.40;;
59127;SDS011;44912;52.754;5.994;2023-04-01T17:20:24;6.88;;;4.30;;
59127;SDS011;44912;52.754;5.994;2023-04-01T17:25:02;7.22;;;4.22;;
59127;SDS011;44912;52.754;5.994;2023-04-01T17:27:50;7.50;;;4.35;;
59127;SDS011;44912;52.754;5.994;2023-04-01T17:30:58;8.98;;;4.97;;
59127;SDS011;44912;52.754;5.994;2023-04-01T17:33:40;7.22;;;4.57;;
59127;SDS011;44912;52.754;5.994;2023-04-01T17:42:14;8.75;;;4.78;;
59127;SDS011;44912;52.754;5.994;2023-04-01T17:44:53;7.55;;;4.70;;
59127;SDS011;44912;52.754;5.994;2023-04-01T17:58:28;8.73;;;5.05;;
59127;SDS011;44912;52.754;5.994;2023-04-01T18:09:48;9.55;;;5.03;;
59127;SDS011;44912;52.754;5.994;2023-04-01T18:21:09;8.98;;;5.60;;
59127;SDS011;44912;52.754;5.994;2023-04-01T18:23:57;10.38;;;6.15;;
59127;SDS011;44912;52.754;5.994;2023-04-01T18:26:31;10.07;;;5.82;;
59127;SDS011;44912;52.754;5.994;2023-04-01T18:29:02;10.00;;;5.80;;
59127;SDS011;44912;52.754;5.994;2023-04-01T18:31:40;10.93;;;5.95;;
59127;SDS011;44912;52.754;5.994;2023-04-01T18:34:32;10.07;;;5.47;;
59127;SDS011;44912;52.754;5.994;2023-04-01T18:37:31;8.73;;;5.25;;
59127;SDS011;44912;52.754;5.994;2023-04-01T18:40:04;9.10;;;5.45;;
59127;SDS011;44912;52.754;5.994;2023-04-01T18:45:54;10.43;;;6.03;;
59127;SDS011;44912;52.754;5.994;2023-04-01T18:48:47;8.90;;;5.80;;
59127;SDS011;44912;52.754;5.994;2023-04-01T18:51:33;9.80;;;6.22;;
59127;SDS011;44912;52.754;5.994;2023-04-01T18:54:32;11.48;;;6.05;;
59127;SDS011;44912;52.754;5.994;2023-04-01T18:57:12;9.68;;;6.30;;
59127;SDS011;44912;52.754;5.994;2023-04-01T19:02:32;10.85;;;6.32;;
59127;SDS011;44912;52.754;5.994;2023-04-01T19:05:04;10.35;;;5.97;;
59127;SDS011;44912;52.754;5.994;2023-04-01T19:07:41;9.52;;;5.72;;
59127;SDS011;44912;52.754;5.994;2023-04-01T19:12:48;9.88;;;6.13;;
59127;SDS011;44912;52.754;5.994;2023-04-01T19:18:25;9.20;;;6.25;;
59127;SDS011;44912;52.754;5.994;2023-04-01T19:21:22;10.02;;;5.95;;
59127;SDS011;44912;52.754;5.994;2023-04-01T19:35:23;10.93;;;7.10;;
59127;SDS011;44912;52.754;5.994;2023-04-01T19:38:12;10.73;;;6.63;;
59127;SDS011;44912;52.754;5.994;2023-04-01T19:40:42;10.38;;;6.60;;
59127;SDS011;44912;52.754;5.994;2023-04-01T19:46:08;11.35;;;6.53;;
59127;SDS011;44912;52.754;5.994;2023-04-01T19:49:02;13.20;;;7.05;;
59127;SDS011;44912;52.754;5.994;2023-04-01T19:54:35;10.95;;;6.32;;
59127;SDS011;44912;52.754;5.994;2023-04-01T19:57:25;11.82;;;5.90;;
59127;SDS011;44912;52.754;5.994;2023-04-01T20:00:28;10.15;;;6.88;;
59127;SDS011;44912;52.754;5.994;2023-04-01T20:03:05;10.05;;;6.45;;
59127;SDS011;44912;52.754;5.994;2023-04-01T20:19:35;12.10;;;7.22;;
59127;SDS011;44912;52.754;5.994;2023-04-01T20:22:19;13.65;;;7.20;;
59127;SDS011;44912;52.754;5.994;2023-04-01T20:25:05;12.32;;;6.97;;
59127;SDS011;44912;52.754;5.994;2023-04-01T20:27:54;12.27;;;7.35;;
59127;SDS011;44912;52.754;5.994;2023-04-01T20:34:08;11.68;;;7.07;;
59127;SDS011;44912;52.754;5.994;2023-04-01T20:36:45;11.80;;;7.05;;
59127;SDS011;44912;52.754;5.994;2023-04-01T20:42:52;13.27;;;8.40;;
59127;SDS011;44912;52.754;5.994;2023-04-01T20:45:32;12.63;;;7.90;;
59127;SDS011;44912;52.754;5.994;2023-04-01T20:48:11;11.65;;;7.60;;
59127;SDS011;44912;52.754;5.994;2023-04-01T20:59:10;13.30;;;7.97;;
59127;SDS011;44912;52.754;5.994;2023-04-01T21:04:32;13.25;;;8.20;;
59127;SDS011;44912;52.754;5.994;2023-04-01T21:07:14;14.20;;;8.07;;
59127;SDS011;44912;52.754;5.994;2023-04-01T21:10:07;14.95;;;7.50;;
59127;SDS011;44912;52.754;5.994;2023-04-01T21:17:51;16.65;;;8.75;;
59127;SDS011;44912;52.754;5.994;2023-04-01T21:20:55;17.40;;;9.65;;
59127;SDS011;44912;52.754;5.994;2023-04-01T21:31:59;13.68;;;9.38;;
59127;SDS011;44912;52.754;5.994;2023-04-01T21:41:23;17.08;;;9.45;;
59127;SDS011;44912;52.754;5.994;2023-04-01T21:47:08;14.43;;;8.30;;
59127;SDS011;44912;52.754;5.994;2023-04-01T21:53:18;14.70;;;8.75;;
59127;SDS011;44912;52.754;5.994;2023-04-01T21:58:56;16.50;;;8.05;;
59127;SDS011;44912;52.754;5.994;2023-04-01T22:01:43;14.43;;;9.02;;
59127;SDS011;44912;52.754;5.994;2023-04-01T22:15:40;14.27;;;8.15;;
59127;SDS011;44912;52.754;5.994;2023-04-01T22:18:29;14.38;;;8.18;;
59127;SDS011;44912;52.754;5.994;2023-04-01T22:21:19;12.75;;;7.90;;
59127;SDS011;44912;52.754;5.994;2023-04-01T22:26:59;14.02;;;7.63;;
59127;SDS011;44912;52.754;5.994;2023-04-01T22:32:23;11.57;;;7.88;;
59127;SDS011;44912;52.754;5.994;2023-04-01T22:37:50;13.32;;;7.82;;
59127;SDS011;44912;52.754;5.994;2023-04-01T22:43:06;14.63;;;7.75;;
59127;SDS011;44912;52.754;5.994;2023-04-01T22:45:57;12.65;;;7.00;;
59127;SDS011;44912;52.754;5.994;2023-04-01T22:48:30;12.15;;;7.22;;
59127;SDS011;44912;52.754;5.994;2023-04-01T22:51:24;12.20;;;7.35;;
59127;SDS011;44912;52.754;5.994;2023-04-01T22:54:12;13.52;;;7.10;;
59127;SDS011;44912;52.754;5.994;2023-04-01T22:56:40;11.48;;;7.30;;
59127;SDS011;44912;52.754;5.994;2023-04-01T22:59:14;12.82;;;7.00;;
59127;SDS011;44912;52.754;5.994;2023-04-01T23:01:54;12.30;;;6.90;;
59127;SDS011;44912;52.754;5.994;2023-04-01T23:04:24;15.13;;;6.82;;
59127;SDS011;44912;52.754;5.994;2023-04-01T23:07:02;10.57;;;6.93;;
59127;SDS011;44912;52.754;5.994;2023-04-01T23:09:41;13.40;;;6.97;;
59127;SDS011;44912;52.754;5.994;2023-04-01T23:12:09;11.93;;;6.60;;
59127;SDS011;44912;52.754;5.994;2023-04-01T23:19:47;12.98;;;6.63;;
59127;SDS011;44912;52.754;5.994;2023-04-01T23:22:54;13.38;;;6.63;;
59127;SDS011;44912;52.754;5.994;2023-04-01T23:25:58;14.02;;;7.45;;
59127;SDS011;44912;52.754;5.994;2023-04-01T23:28:44;12.57;;;7.00;;
59127;SDS011;44912;52.754;5.994;2023-04-01T23:36:47;13.10;;;6.65;;
59127;SDS011;44912;52.754;5.994;2023-04-01T23:39:32;12.48;;;7.57;;
59127;SDS011;44912;52.754;5.994;2023-04-01T23:42:04;13.65;;;6.88;;
59127;SDS011;44912;52.754;5.994;2023-04-01T23:44:46;12.85;;;7.50;;
59127;SDS011;44912;52.754;5.994;2023-04-01T23:47:21;12.13;;;7.57;;
59127;SDS011;44912;52.754;5.994;2023-04-01T23:49:58;12.75;;;6.80;;
59127;SDS011;44912;52.754;5.994;2023-04-01T23:52:35;12.80;;;7.40;;
59127;SDS011;44912;52.754;5.994;2023-04-01T23:55:13;12.13;;;7.10;;
59127;SDS011;44912;52.754;5.994;2023-04-01T23:57:42;14.00;;;6.18;;
